createdAt,value
2022-09-23T00:01:11.369Z,98918.16
2022-09-23T00:03:42.870Z,98917.22
2022-09-23T00:06:12.300Z,98909.44
2022-09-23T00:08:39.727Z,98909.53
2022-09-23T00:11:12.696Z,98902.19
2022-09-23T00:13:42.322Z,98912.94
2022-09-23T00:16:14.471Z,98909.88
2022-09-23T00:18:42.483Z,98916.81
2022-09-23T00:21:11.684Z,98905.72
2022-09-23T00:23:40.549Z,98905.63
2022-09-23T00:26:08.937Z,98902.94
2022-09-23T00:28:36.118Z,98909.75
2022-09-23T00:31:04.680Z,98907.28
2022-09-23T00:33:31.396Z,98902.31
2022-09-23T00:36:02.704Z,98890.50
2022-09-23T00:38:29.421Z,98910.72
2022-09-23T00:40:56.516Z,98904.78
2022-09-23T00:43:39.275Z,98904.09
2022-09-23T00:46:09.042Z,98896.53
2022-09-23T00:48:39.094Z,98893.47
2022-09-23T00:51:09.115Z,98898.75
2022-09-23T00:53:36.103Z,98902.63
2022-09-23T00:56:07.230Z,98886.34
2022-09-23T00:58:37.733Z,98894.66
2022-09-23T01:01:04.871Z,98889.22
2022-09-23T01:03:31.809Z,98888.03
2022-09-23T01:05:59.061Z,98890.19
2022-09-23T01:08:27.683Z,98878.59
2022-09-23T01:11:02.578Z,98891.84
2022-09-23T01:13:55.760Z,98881.28
2022-09-23T01:16:29.394Z,98873.69
2022-09-23T01:19:08.457Z,98881.28
2022-09-23T01:21:35.322Z,98877.63
2022-09-23T01:24:26.354Z,98880.34
2022-09-23T01:27:14.178Z,98876.81
2022-09-23T01:30:11.100Z,98879.41
2022-09-23T01:32:52.844Z,98873.19
2022-09-23T01:35:25.715Z,98873.69
2022-09-23T01:37:59.288Z,98882.31
2022-09-23T01:40:54.002Z,98869.34
2022-09-23T01:43:33.922Z,98871.84
2022-09-23T01:46:08.056Z,98871.00
2022-09-23T01:48:49.544Z,98876.41
2022-09-23T01:51:25.833Z,98863.06
2022-09-23T01:54:16.026Z,98863.91
2022-09-23T01:56:51.895Z,98859.53
2022-09-23T01:59:26.347Z,98871.94
2022-09-23T02:02:03.585Z,98864.25
2022-09-23T02:04:57.178Z,98856.72
2022-09-23T02:07:37.416Z,98855.75
2022-09-23T02:10:19.852Z,98853.75
2022-09-23T02:12:52.203Z,98857.19
2022-09-23T02:15:26.360Z,98856.25
2022-09-23T02:18:09.942Z,98853.84
2022-09-23T02:20:41.269Z,98854.47
2022-09-23T02:23:50.349Z,98857.88
2022-09-23T02:26:38.160Z,98852.41
2022-09-23T02:29:29.386Z,98861.13
2022-09-23T02:32:24.364Z,98854.16
2022-09-23T02:35:05.669Z,98856.41
2022-09-23T02:37:58.741Z,98848.44
2022-09-23T02:40:36.383Z,98840.97
2022-09-23T02:43:33.919Z,98845.34
2022-09-23T02:46:00.802Z,98845.94
2022-09-23T02:48:34.015Z,98847.00
2022-09-23T02:51:03.572Z,98846.38
2022-09-23T02:53:33.953Z,98846.16
2022-09-23T02:56:01.655Z,98839.91
2022-09-23T02:58:29.911Z,98832.25
2022-09-23T03:01:06.135Z,98838.19
2022-09-23T03:03:32.684Z,98835.47
2022-09-23T03:06:06.446Z,98836.41
2022-09-23T03:08:48.082Z,98835.34
2022-09-23T03:11:17.026Z,98834.84
2022-09-23T03:14:17.656Z,98831.44
2022-09-23T03:16:53.652Z,98836.50
2022-09-23T03:19:42.440Z,98826.03
2022-09-23T03:22:14.057Z,98829.56
2022-09-23T03:24:44.878Z,98834.63
2022-09-23T03:27:16.229Z,98821.19
2022-09-23T03:29:49.701Z,98839.56
2022-09-23T03:32:20.006Z,98833.00
2022-09-23T03:34:51.690Z,98831.22
2022-09-23T03:37:26.286Z,98831.22
2022-09-23T03:40:17.701Z,98828.50
2022-09-23T03:42:44.340Z,98829.56
2022-09-23T03:45:18.383Z,98831.34
2022-09-23T03:47:45.395Z,98824.72
2022-09-23T03:50:13.584Z,98828.13
2022-09-23T03:52:40.711Z,98825.41
2022-09-23T03:55:07.925Z,98824.59
2022-09-23T03:57:35.156Z,98824.84
2022-09-23T04:00:01.976Z,98817.06
2022-09-23T04:02:38.575Z,98817.75
2022-09-23T04:05:06.149Z,98820.47
2022-09-23T04:07:32.701Z,98816.34
2022-09-23T04:09:59.363Z,98807.84
2022-09-23T04:12:25.911Z,98802.63
2022-09-23T04:14:52.560Z,98812.66
2022-09-23T04:17:19.238Z,98808.50
2022-09-23T04:19:45.871Z,98806.88
2022-09-23T04:22:12.569Z,98801.72
2022-09-23T04:24:39.304Z,98805.13
2022-09-23T04:27:06.227Z,98809.72
2022-09-23T04:29:32.867Z,98811.38
2022-09-23T04:31:59.542Z,98813.97
2022-09-23T04:34:26.229Z,98810.56
2022-09-23T04:36:52.841Z,98806.88
2022-09-23T04:39:19.681Z,98810.53
2022-09-23T04:41:46.591Z,98816.63
2022-09-23T04:44:13.919Z,98812.72
2022-09-23T04:46:47.276Z,98804.56
2022-09-23T04:49:15.051Z,98814.38
2022-09-23T04:51:43.431Z,98807.03
2022-09-23T04:54:12.197Z,98817.91
2022-09-23T04:56:39.745Z,98825.78
2022-09-23T04:59:07.201Z,98806.22
2022-09-23T05:01:35.112Z,98809.84
2022-09-23T05:04:05.311Z,98820.72
2022-09-23T05:06:34.544Z,98809.03
2022-09-23T05:09:01.877Z,98813.19
2022-09-23T05:11:30.302Z,98815.88
2022-09-23T05:13:57.165Z,98811.00
2022-09-23T05:16:24.675Z,98817.56
2022-09-23T05:18:52.477Z,98817.09
2022-09-23T05:21:21.954Z,98816.97
2022-09-23T05:23:52.362Z,98815.31
2022-09-23T05:26:19.019Z,98815.94
2022-09-23T05:28:45.542Z,98816.13
2022-09-23T05:31:20.235Z,98815.94
2022-09-23T05:33:54.420Z,98813.66
2022-09-23T05:36:22.086Z,98821.31
2022-09-23T05:38:50.794Z,98816.13
2022-09-23T05:41:18.840Z,98803.28
2022-09-23T05:43:45.728Z,98806.72
2022-09-23T05:46:17.985Z,98808.69
2022-09-23T05:48:48.032Z,98796.16
2022-09-23T05:51:17.210Z,98806.06
2022-09-23T05:53:45.501Z,98799.66
2022-09-23T05:56:17.057Z,98808.06
2022-09-23T05:58:44.380Z,98803.59
2022-09-23T06:01:21.877Z,98796.84
2022-09-23T06:03:49.208Z,98804.41
2022-09-23T06:06:20.491Z,98805.59
2022-09-23T06:08:47.946Z,98801.22
2022-09-23T06:11:15.062Z,98812.72
2022-09-23T06:13:42.354Z,98810.25
2022-09-23T06:16:12.306Z,98804.56
2022-09-23T06:18:40.823Z,98803.41
2022-09-23T06:21:08.843Z,98802.25
2022-09-23T06:23:39.382Z,98803.69
2022-09-23T06:26:09.648Z,98810.59
2022-09-23T06:28:38.129Z,98809.50
2022-09-23T06:31:13.334Z,98801.97
2022-09-23T06:33:41.150Z,98803.53
2022-09-23T06:36:08.409Z,98795.59
2022-09-23T06:38:38.627Z,98800.97
2022-09-23T06:41:05.225Z,98796.09
2022-09-23T06:43:31.765Z,98801.66
2022-09-23T06:46:00.567Z,98800.28
2022-09-23T06:48:28.537Z,98795.47
2022-09-23T06:50:59.295Z,98796.63
2022-09-23T06:53:25.944Z,98800.47
2022-09-23T06:56:06.510Z,98801.81
2022-09-23T06:58:34.808Z,98802.53
2022-09-23T07:01:08.549Z,98796.31
2022-09-23T07:03:36.126Z,98798.91
2022-09-23T07:06:03.251Z,98802.09
2022-09-23T07:08:33.642Z,98799.28
2022-09-23T07:11:03.592Z,98795.63
2022-09-23T07:13:32.376Z,98802.63
2022-09-23T07:16:01.141Z,98797.00
2022-09-23T07:18:36.211Z,98796.75
2022-09-23T07:21:09.115Z,98808.69
2022-09-23T07:23:37.706Z,98811.16
2022-09-23T07:26:04.679Z,98811.38
2022-09-23T07:28:32.330Z,98804.34
2022-09-23T07:31:04.314Z,98809.53
2022-09-23T07:33:32.996Z,98815.41
2022-09-23T07:36:04.749Z,98814.84
2022-09-23T07:38:31.393Z,98802.34
2022-09-23T07:41:18.775Z,98814.25
2022-09-23T07:43:47.115Z,98823.09
2022-09-23T07:46:17.347Z,98819.81
2022-09-23T07:48:45.737Z,98817.69
2022-09-23T07:51:20.972Z,98825.13
2022-09-23T07:53:49.215Z,98813.56
2022-09-23T07:56:16.049Z,98823.22
2022-09-23T07:58:42.626Z,98812.50
2022-09-23T08:01:11.242Z,98823.13
2022-09-23T08:03:39.009Z,98822.09
2022-09-23T08:06:08.582Z,98824.03
2022-09-23T08:08:36.256Z,98818.63
2022-09-23T08:11:08.485Z,98820.25
2022-09-23T08:13:35.057Z,98810.09
2022-09-23T08:16:02.083Z,98812.13
2022-09-23T08:18:29.500Z,98806.84
2022-09-23T08:20:56.203Z,98814.63
2022-09-23T08:23:23.169Z,98818.28
2022-09-23T08:25:59.644Z,98823.47
2022-09-23T08:28:27.063Z,98825.59
2022-09-23T08:30:53.786Z,98823.00
2022-09-23T08:33:23.385Z,98823.59
2022-09-23T08:35:51.678Z,98822.31
2022-09-23T08:38:20.436Z,98824.31
2022-09-23T08:40:50.021Z,98825.03
2022-09-23T08:43:37.085Z,98826.31
2022-09-23T08:46:10.698Z,98823.38
2022-09-23T08:48:47.985Z,98817.69
2022-09-23T08:51:22.267Z,98823.47
2022-09-23T08:53:49.409Z,98820.06
2022-09-23T08:56:22.657Z,98817.81
2022-09-23T08:59:14.814Z,98807.78
2022-09-23T09:01:49.454Z,98810.13
2022-09-23T09:04:40.632Z,98802.31
2022-09-23T09:07:31.701Z,98806.47
2022-09-23T09:10:18.740Z,98808.47
2022-09-23T09:12:53.994Z,98807.66
2022-09-23T09:15:26.684Z,98806.47
2022-09-23T09:18:19.899Z,98801.16
2022-09-23T09:21:14.383Z,98799.47
2022-09-23T09:24:00.155Z,98797.09
2022-09-23T09:26:31.806Z,98792.63
2022-09-23T09:29:17.170Z,98778.38
2022-09-23T09:31:51.270Z,98789.03
2022-09-23T09:34:38.141Z,98786.88
2022-09-23T09:37:07.756Z,98786.88
2022-09-23T09:39:35.879Z,98780.25
2022-09-23T09:42:04.239Z,98782.34
2022-09-23T09:44:37.117Z,98773.72
2022-09-23T09:47:40.471Z,98769.94
2022-09-23T09:50:13.985Z,98776.28
2022-09-23T09:52:42.639Z,98777.22
2022-09-23T09:55:12.229Z,98775.50
2022-09-23T09:57:44.847Z,98769.66
2022-09-23T10:00:26.708Z,98773.81
2022-09-23T10:03:16.495Z,98769.94
2022-09-23T10:05:46.189Z,98768.16
2022-09-23T10:08:18.432Z,98765.88
2022-09-23T10:10:54.531Z,98770.63
2022-09-23T10:13:26.507Z,98764.72
2022-09-23T10:15:56.829Z,98774.19
2022-09-23T10:18:32.264Z,98769.81
2022-09-23T10:21:08.110Z,98770.25
2022-09-23T10:23:40.037Z,98775.47
2022-09-23T10:26:12.070Z,98772.22
2022-09-23T10:28:47.756Z,98771.00
2022-09-23T10:31:22.348Z,98765.28
2022-09-23T10:33:50.997Z,98756.88
2022-09-23T10:36:18.553Z,98761.34
2022-09-23T10:38:50.832Z,98754.28
2022-09-23T10:41:55.260Z,98749.63
2022-09-23T10:44:46.422Z,98753.63
2022-09-23T10:47:52.026Z,98755.13
2022-09-23T10:50:31.093Z,98752.00
2022-09-23T10:53:25.907Z,98743.09
2022-09-23T10:56:34.847Z,98746.56
2022-09-23T10:59:27.157Z,98743.41
2022-09-23T11:02:28.027Z,98742.84
2022-09-23T11:05:01.923Z,98744.06
2022-09-23T11:07:44.889Z,98744.75
2022-09-23T11:10:44.846Z,98752.31
2022-09-23T11:13:24.581Z,98736.34
2022-09-23T11:16:17.750Z,98737.13
2022-09-23T11:18:56.403Z,98734.25
2022-09-23T11:21:38.767Z,98727.97
2022-09-23T11:24:31.206Z,98732.53
2022-09-23T11:27:20.151Z,98726.25
2022-09-23T11:30:10.100Z,98723.53
2022-09-23T11:32:51.208Z,98711.91
2022-09-23T11:35:34.233Z,98709.47
2022-09-23T11:38:07.567Z,98703.44
2022-09-23T11:40:43.944Z,98706.59
2022-09-23T11:43:21.701Z,98705.78
2022-09-23T11:45:58.618Z,98701.56
2022-09-23T11:48:32.577Z,98706.34
2022-09-23T11:51:11.038Z,98698.94
2022-09-23T11:53:41.780Z,98693.47
2022-09-23T11:56:11.750Z,98691.03
2022-09-23T11:58:51.113Z,98688.69
2022-09-23T12:01:37.696Z,98677.59
2022-09-23T12:04:19.784Z,98678.81
2022-09-23T12:06:54.949Z,98679.94
2022-09-23T12:09:57.141Z,98674.06
2022-09-23T12:12:41.148Z,98671.59
2022-09-23T12:15:16.859Z,98673.25
2022-09-23T12:18:06.926Z,98661.97
2022-09-23T12:20:36.664Z,98662.56
2022-09-23T12:23:13.817Z,98657.06
2022-09-23T12:25:47.522Z,98656.38
2022-09-23T12:28:23.403Z,98649.66
2022-09-23T12:30:52.641Z,98656.53
2022-09-23T12:33:24.618Z,98648.94
2022-09-23T12:35:54.147Z,98654.28
2022-09-23T12:38:25.700Z,98655.66
2022-09-23T12:40:55.798Z,98646.59
2022-09-23T12:43:35.683Z,98652.66
2022-09-23T12:46:26.096Z,98649.03
2022-09-23T12:48:58.001Z,98649.06
2022-09-23T12:51:26.576Z,98648.88
2022-09-23T12:53:59.758Z,98653.09
2022-09-23T12:56:48.059Z,98642.72
2022-09-23T12:59:23.477Z,98640.53
2022-09-23T13:01:50.239Z,98637.94
2022-09-23T13:05:13.935Z,98629.19
2022-09-23T13:07:45.354Z,98637.94
2022-09-23T13:10:22.157Z,98620.81
2022-09-23T13:12:49.676Z,98627.00
2022-09-23T13:15:38.574Z,98624.53
2022-09-23T13:18:23.095Z,98614.16
2022-09-23T13:20:54.965Z,98614.44
2022-09-23T13:23:31.412Z,98614.44
2022-09-23T13:26:01.407Z,98615.69
2022-09-23T13:28:37.109Z,98612.38
2022-09-23T13:31:06.178Z,98614.31
2022-09-23T13:34:02.490Z,98607.59
2022-09-23T13:36:29.378Z,98603.19
2022-09-23T13:39:15.245Z,98600.88
2022-09-23T13:41:45.175Z,98601.66
2022-09-23T13:44:20.337Z,98597.72
2022-09-23T13:46:53.344Z,98604.69
2022-09-23T13:49:26.738Z,98589.44
2022-09-23T13:51:54.166Z,98589.69
2022-09-23T13:54:49.815Z,98576.06
2022-09-23T13:57:34.478Z,98582.00
2022-09-23T14:00:16.336Z,98566.97
2022-09-23T14:02:43.523Z,98572.72
2022-09-23T14:05:12.493Z,98573.41
2022-09-23T14:07:39.658Z,98575.03
2022-09-23T14:10:08.174Z,98567.47
2022-09-23T14:12:39.430Z,98552.91
2022-09-23T14:15:07.061Z,98551.31
2022-09-23T14:17:34.126Z,98548.81
2022-09-23T14:20:01.050Z,98561.97
2022-09-23T14:22:29.715Z,98552.88
2022-09-23T14:24:57.497Z,98555.75
2022-09-23T14:27:29.882Z,98542.25
2022-09-23T14:29:57.829Z,98556.06
2022-09-23T14:32:28.342Z,98547.16
2022-09-23T14:35:01.264Z,98555.03
2022-09-23T14:38:00.211Z,98549.59
2022-09-23T14:40:50.829Z,98536.56
2022-09-23T14:43:23.186Z,98537.53
2022-09-23T14:45:56.166Z,98534.38
2022-09-23T14:48:31.163Z,98529.31
2022-09-23T14:51:00.063Z,98525.63
2022-09-23T14:53:35.929Z,98535.53
2022-09-23T14:56:11.334Z,98524.66
2022-09-23T14:58:51.028Z,98520.97
2022-09-23T15:01:41.450Z,98514.34
2022-09-23T15:04:11.010Z,98519.41
2022-09-23T15:06:40.322Z,98515.00
2022-09-23T15:09:07.406Z,98521.19
2022-09-23T15:11:36.022Z,98528.09
2022-09-23T15:14:32.994Z,98518.81
2022-09-23T15:16:53.316Z,98530.25
2022-09-23T15:19:22.105Z,98528.72
2022-09-23T15:21:54.290Z,98517.34
2022-09-23T15:24:42.540Z,98527.78
2022-09-23T15:27:19.732Z,98514.75
2022-09-23T15:29:46.898Z,98524.06
2022-09-23T15:32:13.511Z,98521.84
2022-09-23T15:34:40.142Z,98503.34
2022-09-23T15:37:11.096Z,98514.81
2022-09-23T15:39:38.232Z,98507.25
2022-09-23T15:42:05.995Z,98517.97
2022-09-23T15:44:33.076Z,98505.09
2022-09-23T15:47:01.076Z,98493.06
2022-09-23T15:49:41.272Z,98502.69
2022-09-23T15:52:10.635Z,98506.69
2022-09-23T15:54:37.860Z,98509.69
2022-09-23T15:57:04.566Z,98500.38
2022-09-23T15:59:31.391Z,98510.63
2022-09-23T16:02:05.762Z,98519.56
2022-09-23T16:04:32.997Z,98521.63
2022-09-23T16:07:00.302Z,98520.66
2022-09-23T16:09:31.453Z,98523.81
2022-09-23T16:11:58.042Z,98524.00
2022-09-23T16:14:24.609Z,98529.50
2022-09-23T16:16:51.388Z,98527.47
2022-09-23T16:19:17.989Z,98517.44
2022-09-23T16:21:44.740Z,98524.03
2022-09-23T16:24:16.867Z,98521.03
2022-09-23T16:26:45.211Z,98519.09
2022-09-23T16:29:11.784Z,98506.22
2022-09-23T16:31:38.775Z,98513.22
2022-09-23T16:34:05.778Z,98513.75
2022-09-23T16:36:34.966Z,98511.03
2022-09-23T16:39:05.294Z,98513.06
2022-09-23T16:41:32.586Z,98513.03
2022-09-23T16:44:00.929Z,98520.44
2022-09-23T16:46:29.262Z,98507.56
2022-09-23T16:48:57.564Z,98517.38
2022-09-23T16:51:26.739Z,98513.41
2022-09-23T16:53:55.399Z,98512.72
2022-09-23T16:56:28.378Z,98522.44
2022-09-23T16:58:56.500Z,98527.47
2022-09-23T17:01:46.725Z,98518.81
2022-09-23T17:04:15.018Z,98526.41
2022-09-23T17:06:52.478Z,98526.50
2022-09-23T17:09:21.113Z,98525.25
2022-09-23T17:12:06.159Z,98522.78
2022-09-23T17:14:34.584Z,98528.69
2022-09-23T17:17:01.221Z,98521.66
2022-09-23T17:19:28.654Z,98524.84
2022-09-23T17:21:55.194Z,98536.19
2022-09-23T17:24:21.839Z,98534.84
2022-09-23T17:26:52.768Z,98536.91
2022-09-23T17:29:19.990Z,98539.91
2022-09-23T17:31:46.613Z,98539.34
2022-09-23T17:34:13.645Z,98531.69
2022-09-23T17:36:40.475Z,98536.50
2022-09-23T17:39:07.296Z,98529.97
2022-09-23T17:41:33.921Z,98540.03
2022-09-23T17:44:00.758Z,98541.69
2022-09-23T17:46:28.803Z,98544.34
2022-09-23T17:48:55.564Z,98546.34
2022-09-23T17:51:23.035Z,98539.41
2022-09-23T17:53:50.206Z,98539.41
2022-09-23T17:56:29.999Z,98542.50
2022-09-23T17:59:01.238Z,98543.75
2022-09-23T18:01:28.287Z,98535.09
2022-09-23T18:03:56.536Z,98544.66
2022-09-23T18:06:25.361Z,98547.19
2022-09-23T18:08:52.666Z,98542.94
2022-09-23T18:11:22.163Z,98541.75
2022-09-23T18:13:54.938Z,98536.47
2022-09-23T18:16:24.834Z,98538.28
2022-09-23T18:18:56.445Z,98542.38
2022-09-23T18:21:25.369Z,98548.13
2022-09-23T18:23:52.229Z,98543.22
2022-09-23T18:26:21.486Z,98539.69
2022-09-23T18:28:49.263Z,98541.44
2022-09-23T18:31:16.275Z,98547.69
2022-09-23T18:33:43.069Z,98537.94
2022-09-23T18:36:10.111Z,98552.09
2022-09-23T18:38:36.602Z,98540.56
2022-09-23T18:41:03.349Z,98539.47
2022-09-23T18:43:40.766Z,98542.97
2022-09-23T18:46:13.361Z,98540.97
2022-09-23T18:48:59.162Z,98538.25
2022-09-23T18:51:28.939Z,98542.78
2022-09-23T18:54:00.337Z,98546.00
2022-09-23T18:56:41.634Z,98549.88
2022-09-23T18:59:11.910Z,98557.50
2022-09-23T19:01:38.777Z,98551.03
2022-09-23T19:04:06.669Z,98551.81
2022-09-23T19:06:34.986Z,98555.47
2022-09-23T19:09:01.981Z,98549.63
2022-09-23T19:11:28.638Z,98547.00
2022-09-23T19:14:01.822Z,98548.06
2022-09-23T19:16:31.610Z,98551.38
2022-09-23T19:18:59.864Z,98539.88
2022-09-23T19:21:27.367Z,98553.91
2022-09-23T19:24:03.690Z,98545.75
2022-09-23T19:26:33.976Z,98543.41
2022-09-23T19:29:02.411Z,98556.69
2022-09-23T19:31:33.170Z,98546.75
2022-09-23T19:34:02.307Z,98544.53
2022-09-23T19:36:31.679Z,98544.72
2022-09-23T19:39:02.872Z,98551.00
2022-09-23T19:41:35.361Z,98556.00
2022-09-23T19:44:03.441Z,98558.34
2022-09-23T19:46:33.657Z,98558.19
2022-09-23T19:49:00.973Z,98554.22
2022-09-23T19:51:28.236Z,98536.16
2022-09-23T19:53:54.782Z,98553.19
2022-09-23T19:56:21.287Z,98545.69
2022-09-23T19:58:52.221Z,98551.81
2022-09-23T20:01:19.167Z,98552.41
2022-09-23T20:03:47.022Z,98563.19
2022-09-23T20:06:15.131Z,98562.25
2022-09-23T20:08:42.828Z,98562.78
2022-09-23T20:11:15.853Z,98562.91
2022-09-23T20:13:44.403Z,98563.03
2022-09-23T20:16:14.486Z,98543.81
2022-09-23T20:18:42.145Z,98559.59
2022-09-23T20:21:11.903Z,98560.19
2022-09-23T20:23:38.656Z,98552.41
2022-09-23T20:26:24.643Z,98551.94
2022-09-23T20:28:51.616Z,98547.13
2022-09-23T20:31:20.787Z,98543.69
2022-09-23T20:33:58.032Z,98559.72
2022-09-23T20:36:26.599Z,98558.66
2022-09-23T20:38:54.690Z,98565.38
2022-09-23T20:41:21.506Z,98548.00
2022-09-23T20:43:50.566Z,98556.38
2022-09-23T20:46:17.280Z,98551.31
2022-09-23T20:48:46.382Z,98545.41
2022-09-23T20:51:12.979Z,98526.25
2022-09-23T20:53:39.462Z,98553.78
2022-09-23T20:56:06.518Z,98558.53
2022-09-23T20:58:37.083Z,98554.66
2022-09-23T21:01:13.367Z,98553.84
2022-09-23T21:03:42.530Z,98542.06
2022-09-23T21:06:10.022Z,98557.25
2022-09-23T21:08:37.539Z,98554.28
2022-09-23T21:11:07.941Z,98552.41
2022-09-23T21:13:35.229Z,98544.88
2022-09-23T21:16:03.564Z,98553.47
2022-09-23T21:18:30.983Z,98549.59
2022-09-23T21:20:59.242Z,98548.34
2022-09-23T21:23:30.891Z,98549.03
2022-09-23T21:26:19.258Z,98556.69
2022-09-23T21:28:51.465Z,98561.44
2022-09-23T21:31:23.817Z,98559.09
2022-09-23T21:34:01.771Z,98557.56
2022-09-23T21:36:30.587Z,98563.09
2022-09-23T21:38:58.067Z,98558.97
2022-09-23T21:41:25.204Z,98562.97
2022-09-23T21:43:51.793Z,98562.84
2022-09-23T21:46:20.425Z,98561.69
2022-09-23T21:48:49.901Z,98577.63
2022-09-23T21:51:19.125Z,98567.88
2022-09-23T21:53:46.768Z,98574.47
2022-09-23T21:56:19.619Z,98582.81
2022-09-23T21:58:47.661Z,98576.34
2022-09-23T22:01:45.076Z,98578.13
2022-09-23T22:04:16.019Z,98572.25
2022-09-23T22:06:43.354Z,98568.56
2022-09-23T22:09:16.866Z,98562.75
2022-09-23T22:12:02.331Z,98559.47
2022-09-23T22:14:30.491Z,98560.59
2022-09-23T22:17:01.301Z,98567.75
2022-09-23T22:19:35.646Z,98561.81
2022-09-23T22:22:07.675Z,98567.22
2022-09-23T22:24:34.368Z,98564.41
2022-09-23T22:27:00.919Z,98562.22
2022-09-23T22:29:46.204Z,98561.16
2022-09-23T22:32:31.332Z,98564.34
2022-09-23T22:34:57.931Z,98550.66
2022-09-23T22:37:32.803Z,98565.53
2022-09-23T22:40:00.506Z,98569.53
2022-09-23T22:42:27.648Z,98560.78
2022-09-23T22:44:55.585Z,98557.50
2022-09-23T22:47:22.337Z,98559.97
2022-09-23T22:49:49.256Z,98557.63
2022-09-23T22:52:21.165Z,98560.34
2022-09-23T22:54:47.997Z,98554.19
2022-09-23T22:57:15.259Z,98567.53
2022-09-23T22:59:47.794Z,98562.03
2022-09-23T23:02:18.696Z,98562.03
2022-09-23T23:04:49.093Z,98571.72
2022-09-23T23:07:22.980Z,98553.13
2022-09-23T23:09:50.391Z,98566.44
2022-09-23T23:12:20.230Z,98557.84
2022-09-23T23:14:48.531Z,98548.41
2022-09-23T23:17:15.091Z,98562.66
2022-09-23T23:19:41.642Z,98555.97
2022-09-23T23:22:08.175Z,98562.91
2022-09-23T23:24:34.787Z,98549.09
2022-09-23T23:27:01.326Z,98550.16
2022-09-23T23:29:27.946Z,98547.78
2022-09-23T23:31:54.698Z,98551.91
2022-09-23T23:34:21.860Z,98537.53
2022-09-23T23:36:54.722Z,98550.69
2022-09-23T23:39:25.933Z,98534.88
2022-09-23T23:41:57.667Z,98540.06
2022-09-23T23:44:26.204Z,98540.91
2022-09-23T23:46:54.080Z,98529.69
2022-09-23T23:49:21.510Z,98530.84
2022-09-23T23:51:48.099Z,98529.22
2022-09-23T23:54:15.277Z,98526.88
2022-09-23T23:56:41.989Z,98526.63
2022-09-23T23:59:08.601Z,98530.84
